createdAt,value
2019-03-15T00:01:36.154Z,1.90
2019-03-15T00:04:06.656Z,1.80
2019-03-15T00:06:37.085Z,1.80
2019-03-15T00:09:09.471Z,1.80
2019-03-15T00:11:40.050Z,1.80
2019-03-15T00:14:10.463Z,1.60
2019-03-15T00:16:40.911Z,1.50
2019-03-15T00:19:11.343Z,1.70
2019-03-15T00:21:41.787Z,1.40
2019-03-15T00:24:12.237Z,1.50
2019-03-15T00:26:42.663Z,1.40
2019-03-15T00:29:13.155Z,1.40
2019-03-15T00:31:43.634Z,1.40
2019-03-15T00:34:14.216Z,1.40
2019-03-15T00:36:44.679Z,1.20
2019-03-15T00:39:15.207Z,1.20
2019-03-15T00:41:45.658Z,1.30
2019-03-15T00:44:16.169Z,1.20
2019-03-15T00:46:46.611Z,1.50
2019-03-15T00:49:17.026Z,1.50
2019-03-15T00:51:47.513Z,1.60
2019-03-15T00:54:17.899Z,1.50
2019-03-15T00:56:48.367Z,1.50
2019-03-15T00:59:18.824Z,1.40
2019-03-15T01:01:49.315Z,1.40
2019-03-15T01:04:19.738Z,1.30
2019-03-15T01:06:50.238Z,1.40
2019-03-15T01:09:20.661Z,1.20
2019-03-15T01:11:51.092Z,1.40
2019-03-15T01:14:21.610Z,1.30
2019-03-15T01:16:52.023Z,1.40
2019-03-15T01:19:22.438Z,1.40
2019-03-15T01:21:52.928Z,1.60
2019-03-15T01:24:23.386Z,1.50
2019-03-15T01:26:53.826Z,1.60
2019-03-15T01:29:24.312Z,1.30
2019-03-15T01:31:54.803Z,1.70
2019-03-15T01:34:25.236Z,1.50
2019-03-15T01:36:55.731Z,1.60
2019-03-15T01:39:26.143Z,1.70
2019-03-15T01:41:56.589Z,1.70
2019-03-15T01:44:27.014Z,1.60
2019-03-15T01:46:57.443Z,1.60
2019-03-15T01:49:27.881Z,1.60
2019-03-15T01:51:58.272Z,1.60
2019-03-15T01:54:28.698Z,1.70
2019-03-15T01:56:59.115Z,1.80
2019-03-15T01:59:29.514Z,1.80
2019-03-15T02:01:59.977Z,1.60
2019-03-15T02:04:30.387Z,1.80
2019-03-15T02:07:00.828Z,1.80
2019-03-15T02:09:31.346Z,1.90
2019-03-15T02:12:01.764Z,1.70
2019-03-15T02:14:32.154Z,1.80
2019-03-15T02:17:02.546Z,1.70
2019-03-15T02:19:32.947Z,1.80
2019-03-15T02:22:03.382Z,1.80
2019-03-15T02:24:33.799Z,1.80
2019-03-15T02:27:04.222Z,1.80
2019-03-15T02:29:34.668Z,1.70
2019-03-15T02:32:05.144Z,1.90
2019-03-15T02:34:35.576Z,1.70
2019-03-15T02:37:06.970Z,1.70
2019-03-15T02:39:37.442Z,1.90
2019-03-15T02:42:07.866Z,1.70
2019-03-15T02:44:39.236Z,1.90
2019-03-15T02:47:09.807Z,1.60
2019-03-15T02:49:40.248Z,1.70
2019-03-15T02:52:10.655Z,1.70
2019-03-15T02:54:41.135Z,1.50
2019-03-15T02:57:11.535Z,1.70
2019-03-15T02:59:41.971Z,1.60
2019-03-15T03:02:12.512Z,1.50
2019-03-15T03:04:42.919Z,1.60
2019-03-15T03:07:13.366Z,1.60
2019-03-15T03:09:43.822Z,1.60
2019-03-15T03:12:14.244Z,1.50
2019-03-15T03:14:44.668Z,1.70
2019-03-15T03:17:15.059Z,1.40
2019-03-15T03:19:45.499Z,1.70
2019-03-15T03:22:16.009Z,1.70
2019-03-15T03:24:46.508Z,1.70
2019-03-15T03:27:17.258Z,1.70
2019-03-15T03:29:47.880Z,1.70
2019-03-15T03:32:18.337Z,1.80
2019-03-15T03:34:48.792Z,1.60
2019-03-15T03:37:19.358Z,1.80
2019-03-15T03:39:49.821Z,1.80
2019-03-15T03:42:20.375Z,1.80
2019-03-15T03:44:50.783Z,1.70
2019-03-15T03:47:21.186Z,1.80
2019-03-15T03:49:51.641Z,1.90
2019-03-15T03:52:22.032Z,1.80
2019-03-15T03:54:52.484Z,2.00
2019-03-15T03:57:22.991Z,1.80
2019-03-15T03:59:53.419Z,1.90
2019-03-15T04:02:23.818Z,2.10
2019-03-15T04:04:54.367Z,2.20
2019-03-15T04:07:24.924Z,2.00
2019-03-15T04:09:55.332Z,2.00
2019-03-15T04:12:25.778Z,2.10
2019-03-15T04:14:56.207Z,2.30
2019-03-15T04:17:26.743Z,2.20
2019-03-15T04:19:57.175Z,2.40
2019-03-15T04:22:27.595Z,2.30
2019-03-15T04:24:58.042Z,2.40
2019-03-15T04:27:28.502Z,2.30
2019-03-15T04:29:58.890Z,2.30
2019-03-15T04:32:29.346Z,2.30
2019-03-15T04:34:59.822Z,2.40
2019-03-15T04:37:30.229Z,2.60
2019-03-15T04:40:00.687Z,2.60
2019-03-15T04:42:31.114Z,2.40
2019-03-15T04:45:01.519Z,2.40
2019-03-15T04:47:31.967Z,2.70
2019-03-15T04:50:02.424Z,2.60
2019-03-15T04:52:32.847Z,2.70
2019-03-15T04:55:03.251Z,2.80
2019-03-15T04:57:33.669Z,2.80
2019-03-15T05:00:04.611Z,2.90
2019-03-15T05:02:35.011Z,2.70
2019-03-15T05:05:06.051Z,2.70
2019-03-15T05:07:36.459Z,2.70
2019-03-15T05:10:07.146Z,3.00
2019-03-15T05:12:37.650Z,2.80
2019-03-15T05:15:08.794Z,2.90
2019-03-15T05:17:39.201Z,2.90
2019-03-15T05:20:09.790Z,2.90
2019-03-15T05:22:40.198Z,3.00
2019-03-15T05:25:10.725Z,3.00
2019-03-15T05:27:41.180Z,2.90
2019-03-15T05:30:11.866Z,3.30
2019-03-15T05:32:42.291Z,3.40
2019-03-15T05:35:12.820Z,3.50
2019-03-15T05:37:43.227Z,3.60
2019-03-15T05:40:14.215Z,3.20
2019-03-15T05:42:44.618Z,3.10
2019-03-15T05:45:15.132Z,3.40
2019-03-15T05:47:45.583Z,3.40
2019-03-15T05:50:16.086Z,3.60
2019-03-15T05:52:46.566Z,3.60
2019-03-15T05:55:16.922Z,3.70
2019-03-15T05:57:47.456Z,3.80
2019-03-15T06:00:17.970Z,3.70
2019-03-15T06:02:48.443Z,3.80
2019-03-15T06:05:18.838Z,4.00
2019-03-15T06:07:49.276Z,3.80
2019-03-15T06:10:19.811Z,4.00
2019-03-15T06:12:50.299Z,4.10
2019-03-15T06:15:20.735Z,4.00
2019-03-15T06:17:51.204Z,4.30
2019-03-15T06:20:21.615Z,4.10
2019-03-15T06:22:52.034Z,4.20
2019-03-15T06:25:22.458Z,4.40
2019-03-15T06:27:52.922Z,4.30
2019-03-15T06:30:23.343Z,4.40
2019-03-15T06:32:53.895Z,4.30
2019-03-15T06:35:24.359Z,4.40
2019-03-15T06:37:54.805Z,4.70
2019-03-15T06:40:25.219Z,4.60
2019-03-15T06:42:55.658Z,4.70
2019-03-15T06:45:26.091Z,4.80
2019-03-15T06:47:56.499Z,5.00
2019-03-15T06:50:26.928Z,5.00
2019-03-15T06:52:57.373Z,5.30
2019-03-15T06:55:27.822Z,5.40
2019-03-15T06:57:58.326Z,5.60
2019-03-15T07:00:28.766Z,5.40
2019-03-15T07:02:59.227Z,5.40
2019-03-15T07:05:29.675Z,5.50
2019-03-15T07:08:00.125Z,5.60
2019-03-15T07:10:30.549Z,5.40
2019-03-15T07:13:00.989Z,5.40
2019-03-15T07:15:31.392Z,5.20
2019-03-15T07:18:01.829Z,5.40
2019-03-15T07:20:32.242Z,5.30
2019-03-15T07:23:02.787Z,5.40
2019-03-15T07:25:33.230Z,5.60
2019-03-15T07:28:03.648Z,5.50
2019-03-15T07:30:34.236Z,6.00
2019-03-15T07:33:04.711Z,6.10
2019-03-15T07:35:35.250Z,6.10
2019-03-15T07:38:05.799Z,5.90
2019-03-15T07:40:36.198Z,5.80
2019-03-15T07:43:06.686Z,5.90
2019-03-15T07:45:37.243Z,6.30
2019-03-15T07:48:21.302Z,6.20
2019-03-15T07:50:39.833Z,6.30
2019-03-15T07:53:10.239Z,6.20
2019-03-15T07:55:40.682Z,6.40
2019-03-15T07:58:11.095Z,6.50
2019-03-15T08:00:41.643Z,6.40
2019-03-15T08:03:12.288Z,6.30
2019-03-15T08:05:42.694Z,6.20
2019-03-15T08:08:13.112Z,6.30
2019-03-15T08:10:43.639Z,6.20
2019-03-15T08:13:14.043Z,6.10
2019-03-15T08:15:44.494Z,6.60
2019-03-15T08:18:14.891Z,6.40
2019-03-15T08:20:45.343Z,6.40
2019-03-15T08:23:15.752Z,6.40
2019-03-15T08:25:46.192Z,6.30
2019-03-15T08:28:16.603Z,6.70
2019-03-15T08:30:47.075Z,6.70
2019-03-15T08:33:17.502Z,6.70
2019-03-15T08:35:48.054Z,6.90
2019-03-15T08:38:18.492Z,7.00
2019-03-15T08:40:49.010Z,6.80
2019-03-15T08:43:19.458Z,6.60
2019-03-15T08:45:49.879Z,6.60
2019-03-15T08:48:20.294Z,6.70
2019-03-15T08:50:50.835Z,7.00
2019-03-15T08:53:21.260Z,7.00
2019-03-15T08:55:51.659Z,7.00
2019-03-15T08:58:22.568Z,7.10
2019-03-15T09:00:53.032Z,6.80
2019-03-15T09:03:28.183Z,6.60
2019-03-15T09:05:55.518Z,6.60
2019-03-15T09:08:25.986Z,6.50
2019-03-15T09:10:56.445Z,6.50
2019-03-15T09:13:26.896Z,6.50
2019-03-15T09:15:57.307Z,6.60
2019-03-15T09:18:27.739Z,6.50
2019-03-15T09:20:58.282Z,6.70
2019-03-15T09:23:28.751Z,6.70
2019-03-15T09:25:59.275Z,6.90
2019-03-15T09:28:29.740Z,6.80
2019-03-15T09:31:00.182Z,7.10
2019-03-15T09:33:30.618Z,6.80
2019-03-15T09:36:01.110Z,7.00
2019-03-15T09:38:31.530Z,7.00
2019-03-15T09:41:01.991Z,7.00
2019-03-15T09:43:32.461Z,7.10
2019-03-15T09:46:02.973Z,7.30
2019-03-15T09:48:33.391Z,7.40
2019-03-15T09:51:03.827Z,7.20
2019-03-15T09:53:34.255Z,7.70
2019-03-15T09:56:04.798Z,7.70
2019-03-15T09:58:35.223Z,7.60
2019-03-15T10:01:06.225Z,7.40
2019-03-15T10:03:36.789Z,7.40
2019-03-15T10:06:14.990Z,7.40
2019-03-15T10:08:39.297Z,7.20
2019-03-15T10:11:09.735Z,7.00
2019-03-15T10:13:40.155Z,7.20
2019-03-15T10:16:10.572Z,7.10
2019-03-15T10:18:41.007Z,7.30
2019-03-15T10:21:11.546Z,7.50
2019-03-15T10:23:41.968Z,7.30
2019-03-15T10:26:14.869Z,7.20
2019-03-15T10:28:44.451Z,7.20
2019-03-15T10:31:14.871Z,7.10
2019-03-15T10:33:50.246Z,7.10
2019-03-15T10:36:17.411Z,7.20
2019-03-15T10:38:47.859Z,7.30
2019-03-15T10:41:18.299Z,7.30
2019-03-15T10:43:48.739Z,7.20
2019-03-15T10:46:19.151Z,7.20
2019-03-15T10:48:49.667Z,7.30
2019-03-15T10:51:20.102Z,7.30
2019-03-15T10:53:50.612Z,7.60
2019-03-15T10:56:21.028Z,7.40
2019-03-15T10:58:51.459Z,7.70
2019-03-15T11:01:21.901Z,7.60
2019-03-15T11:03:52.318Z,7.60
2019-03-15T11:06:22.763Z,7.50
2019-03-15T11:08:53.193Z,7.50
2019-03-15T11:11:23.628Z,7.30
2019-03-15T11:13:55.661Z,7.30
2019-03-15T11:16:26.119Z,7.30
2019-03-15T11:18:56.542Z,7.40
2019-03-15T11:21:26.973Z,7.10
2019-03-15T11:23:57.396Z,7.10
2019-03-15T11:26:27.839Z,7.20
2019-03-15T11:28:58.247Z,7.20
2019-03-15T11:31:28.675Z,7.20
2019-03-15T11:33:59.194Z,7.40
2019-03-15T11:36:29.657Z,7.50
2019-03-15T11:39:00.214Z,7.70
2019-03-15T11:41:30.704Z,8.10
2019-03-15T11:44:01.160Z,8.10
2019-03-15T11:46:31.587Z,8.20
2019-03-15T11:49:02.142Z,8.30
2019-03-15T11:51:32.561Z,8.20
2019-03-15T11:54:02.975Z,8.00
2019-03-15T11:56:33.439Z,7.60
2019-03-15T11:59:03.887Z,7.60
2019-03-15T12:01:37.627Z,7.40
2019-03-15T12:04:06.387Z,6.90
2019-03-15T12:06:36.854Z,7.10
2019-03-15T12:09:08.647Z,7.40
2019-03-15T12:11:39.085Z,7.30
2019-03-15T12:14:09.703Z,7.30
2019-03-15T12:16:40.098Z,7.30
2019-03-15T12:19:10.526Z,7.40
2019-03-15T12:21:40.959Z,7.60
2019-03-15T12:24:11.391Z,7.40
2019-03-15T12:26:41.807Z,7.20
2019-03-15T12:29:12.243Z,7.10
2019-03-15T12:31:42.666Z,6.90
2019-03-15T12:34:13.119Z,6.90
2019-03-15T12:36:43.715Z,6.80
2019-03-15T12:39:14.255Z,6.90
2019-03-15T12:41:44.851Z,6.90
2019-03-15T12:44:15.333Z,6.90
2019-03-15T12:46:45.863Z,7.10
2019-03-15T12:49:16.405Z,7.10
2019-03-15T12:51:46.920Z,7.00
2019-03-15T12:54:17.369Z,7.00
2019-03-15T12:56:53.578Z,7.00
2019-03-15T12:59:20.148Z,6.90
2019-03-15T13:01:50.711Z,7.30
2019-03-15T13:04:21.155Z,7.20
2019-03-15T13:06:51.602Z,7.10
2019-03-15T13:09:22.458Z,7.30
2019-03-15T13:11:52.896Z,7.10
2019-03-15T13:14:23.483Z,7.80
2019-03-15T13:16:54.138Z,8.10
2019-03-15T13:19:24.679Z,8.30
2019-03-15T13:21:55.174Z,8.50
2019-03-15T13:24:25.700Z,8.50
2019-03-15T13:27:06.872Z,8.50
2019-03-15T13:29:28.159Z,8.50
2019-03-15T13:31:58.624Z,8.40
2019-03-15T13:34:29.088Z,8.40
2019-03-15T13:36:59.587Z,8.20
2019-03-15T13:39:30.055Z,8.20
2019-03-15T13:42:00.590Z,8.20
2019-03-15T13:44:31.083Z,8.30
2019-03-15T13:47:01.498Z,8.40
2019-03-15T13:49:31.901Z,8.30
2019-03-15T13:52:02.351Z,7.80
2019-03-15T13:54:32.751Z,8.00
2019-03-15T13:57:03.262Z,7.90
2019-03-15T13:59:33.681Z,7.80
2019-03-15T14:02:07.387Z,7.70
2019-03-15T14:04:36.160Z,7.60
2019-03-15T14:07:06.653Z,7.50
2019-03-15T14:09:37.070Z,7.40
2019-03-15T14:12:07.524Z,7.40
2019-03-15T14:14:37.964Z,7.30
2019-03-15T14:17:08.390Z,7.30
2019-03-15T14:19:38.880Z,7.30
2019-03-15T14:22:09.346Z,7.30
2019-03-15T14:24:39.810Z,7.30
2019-03-15T14:27:10.308Z,7.20
2019-03-15T14:29:40.784Z,7.60
2019-03-15T14:32:11.189Z,7.50
2019-03-15T14:34:41.638Z,7.60
2019-03-15T14:37:12.139Z,7.60
2019-03-15T14:39:42.601Z,7.70
2019-03-15T14:42:13.390Z,7.80
2019-03-15T14:44:43.954Z,7.80
2019-03-15T14:47:14.567Z,7.80
2019-03-15T14:49:44.986Z,8.00
2019-03-15T14:52:15.396Z,7.90
2019-03-15T14:54:45.911Z,7.80
2019-03-15T14:57:16.330Z,7.70
2019-03-15T14:59:46.958Z,7.70
2019-03-15T15:02:17.401Z,7.70
2019-03-15T15:04:47.857Z,7.80
2019-03-15T15:07:18.294Z,7.80
2019-03-15T15:09:48.710Z,7.90
2019-03-15T15:12:19.255Z,7.90
2019-03-15T15:14:49.713Z,8.00
2019-03-15T15:17:20.119Z,8.00
2019-03-15T15:19:50.558Z,8.10
2019-03-15T15:22:21.003Z,8.00
2019-03-15T15:24:51.462Z,7.80
2019-03-15T15:27:21.874Z,7.90
2019-03-15T15:29:52.303Z,7.70
2019-03-15T15:32:22.726Z,7.60
2019-03-15T15:34:53.191Z,7.70
2019-03-15T15:37:23.615Z,7.60
2019-03-15T15:39:54.067Z,7.50
2019-03-15T15:42:24.499Z,7.60
2019-03-15T15:44:55.370Z,7.50
2019-03-15T15:47:25.763Z,7.50
2019-03-15T15:49:56.385Z,7.20
2019-03-15T15:52:26.840Z,7.10
2019-03-15T15:54:57.257Z,7.20
2019-03-15T15:57:27.714Z,6.90
2019-03-15T15:59:59.090Z,6.60
2019-03-15T16:02:29.578Z,6.50
2019-03-15T16:05:00.416Z,6.40
2019-03-15T16:07:31.226Z,6.30
2019-03-15T16:10:01.671Z,6.00
2019-03-15T16:12:32.245Z,5.90
2019-03-15T16:15:02.758Z,6.00
2019-03-15T16:17:33.232Z,6.00
2019-03-15T16:20:03.746Z,5.90
2019-03-15T16:22:34.275Z,5.60
2019-03-15T16:25:04.744Z,5.40
2019-03-15T16:27:35.257Z,5.50
2019-03-15T16:30:06.486Z,5.60
2019-03-15T16:32:48.490Z,5.60
2019-03-15T16:35:19.031Z,5.80
2019-03-15T16:37:49.614Z,5.70
2019-03-15T16:40:20.291Z,5.90
2019-03-15T16:42:50.751Z,5.90
2019-03-15T16:45:21.416Z,6.20
2019-03-15T16:47:51.818Z,5.90
2019-03-15T16:50:22.370Z,6.00
2019-03-15T16:52:53.267Z,6.20
2019-03-15T16:55:23.839Z,6.40
2019-03-15T16:57:54.442Z,5.90
2019-03-15T17:00:26.442Z,6.20
2019-03-15T17:02:56.879Z,6.30
2019-03-15T17:05:27.618Z,6.10
2019-03-15T17:07:58.329Z,6.00
2019-03-15T17:10:28.903Z,6.10
2019-03-15T17:12:59.335Z,6.30
2019-03-15T17:15:29.913Z,6.10
2019-03-15T17:18:00.416Z,6.10
2019-03-15T17:20:30.904Z,5.90
2019-03-15T17:23:01.431Z,5.80
2019-03-15T17:25:32.059Z,5.70
2019-03-15T17:28:02.848Z,5.90
2019-03-15T17:30:33.299Z,5.70
2019-03-15T17:33:06.181Z,5.50
2019-03-15T17:35:35.902Z,5.90
2019-03-15T17:38:06.363Z,5.70
2019-03-15T17:40:36.774Z,5.80
2019-03-15T17:43:08.858Z,5.70
2019-03-15T17:45:39.282Z,5.90
2019-03-15T17:48:09.736Z,5.90
2019-03-15T17:50:40.206Z,5.90
2019-03-15T17:53:10.762Z,5.90
2019-03-15T17:55:41.439Z,6.30
2019-03-15T17:58:11.876Z,6.20
2019-03-15T18:00:43.954Z,6.20
2019-03-15T18:03:21.528Z,6.20
2019-03-15T18:05:47.360Z,6.30
2019-03-15T18:08:17.915Z,6.00
2019-03-15T18:10:48.409Z,6.20
2019-03-15T18:13:18.907Z,6.20
2019-03-15T18:15:49.383Z,6.30
2019-03-15T18:18:19.973Z,6.10
2019-03-15T18:20:50.520Z,6.20
2019-03-15T18:23:21.039Z,6.20
2019-03-15T18:25:51.646Z,6.20
2019-03-15T18:28:22.211Z,6.30
2019-03-15T18:30:52.723Z,6.20
2019-03-15T18:33:23.170Z,6.10
2019-03-15T18:35:53.645Z,6.20
2019-03-15T18:38:24.187Z,6.10
2019-03-15T18:40:54.646Z,6.00
2019-03-15T18:43:25.257Z,6.00
2019-03-15T18:45:55.678Z,6.10
2019-03-15T18:48:26.237Z,6.10
2019-03-15T18:50:56.678Z,6.40
2019-03-15T18:53:27.142Z,6.30
2019-03-15T18:55:57.690Z,6.10
2019-03-15T18:58:28.295Z,6.10
2019-03-15T19:00:58.838Z,6.20
2019-03-15T19:03:29.590Z,6.20
2019-03-15T19:06:00.198Z,6.10
2019-03-15T19:08:30.840Z,6.40
2019-03-15T19:11:01.542Z,6.30
2019-03-15T19:13:32.018Z,6.10
2019-03-15T19:16:02.711Z,6.20
2019-03-15T19:18:33.227Z,6.10
2019-03-15T19:21:03.823Z,6.00
2019-03-15T19:23:34.348Z,6.00
2019-03-15T19:26:04.758Z,6.10
2019-03-15T19:28:35.195Z,6.20
2019-03-15T19:31:05.731Z,6.00
2019-03-15T19:33:36.259Z,5.90
2019-03-15T19:36:06.708Z,6.10
2019-03-15T19:38:37.438Z,6.00
2019-03-15T19:41:08.295Z,6.00
2019-03-15T19:43:38.705Z,5.90
2019-03-15T19:46:09.393Z,5.90
2019-03-15T19:48:42.087Z,5.70
2019-03-15T19:51:12.207Z,5.60
2019-03-15T19:53:42.752Z,5.60
2019-03-15T19:56:13.360Z,5.60
2019-03-15T19:58:43.802Z,5.50
2019-03-15T20:01:14.266Z,5.40
2019-03-15T20:03:44.811Z,5.50
2019-03-15T20:06:15.352Z,5.50
2019-03-15T20:08:45.919Z,5.40
2019-03-15T20:11:16.455Z,5.60
2019-03-15T20:13:47.627Z,5.60
2019-03-15T20:16:18.686Z,5.70
2019-03-15T20:18:49.355Z,5.50
2019-03-15T20:21:19.873Z,5.50
2019-03-15T20:23:50.405Z,5.40
2019-03-15T20:26:20.860Z,5.60
2019-03-15T20:28:51.330Z,5.30
2019-03-15T20:31:21.810Z,5.30
2019-03-15T20:33:52.310Z,5.30
2019-03-15T20:36:22.752Z,5.30
2019-03-15T20:38:53.230Z,5.50
2019-03-15T20:41:23.731Z,5.50
2019-03-15T20:43:54.198Z,5.40
2019-03-15T20:46:35.100Z,5.40
2019-03-15T20:48:56.918Z,5.40
2019-03-15T20:51:27.406Z,5.40
2019-03-15T20:53:57.980Z,5.40
2019-03-15T20:56:28.490Z,5.30
2019-03-15T20:58:59.033Z,5.50
2019-03-15T21:01:29.462Z,5.40
2019-03-15T21:04:00.102Z,5.50
2019-03-15T21:06:30.610Z,5.50
2019-03-15T21:09:01.360Z,5.50
2019-03-15T21:11:31.784Z,5.50
2019-03-15T21:14:02.253Z,5.80
2019-03-15T21:16:32.780Z,5.50
2019-03-15T21:19:03.254Z,5.60
2019-03-15T21:21:33.836Z,5.70
2019-03-15T21:24:04.286Z,5.70
2019-03-15T21:26:34.800Z,5.60
2019-03-15T21:29:05.374Z,5.40
2019-03-15T21:31:35.822Z,5.50
2019-03-15T21:34:06.272Z,5.40
2019-03-15T21:36:36.698Z,5.40
2019-03-15T21:39:08.737Z,5.40
2019-03-15T21:41:39.190Z,5.40
2019-03-15T21:44:09.651Z,5.30
2019-03-15T21:46:40.063Z,5.40
2019-03-15T21:49:10.549Z,5.50
2019-03-15T21:51:41.002Z,5.50
2019-03-15T21:54:11.450Z,5.40
2019-03-15T21:56:41.847Z,5.60
2019-03-15T21:59:12.286Z,5.60
2019-03-15T22:01:43.125Z,5.40
2019-03-15T22:04:13.577Z,5.40
2019-03-15T22:06:44.015Z,5.30
2019-03-15T22:09:14.455Z,5.50
2019-03-15T22:11:44.883Z,5.50
2019-03-15T22:14:15.336Z,5.40
2019-03-15T22:16:45.891Z,5.60
2019-03-15T22:19:16.510Z,5.40
2019-03-15T22:21:46.942Z,5.30
2019-03-15T22:24:17.387Z,5.40
2019-03-15T22:26:47.906Z,5.20
2019-03-15T22:29:18.452Z,5.30
2019-03-15T22:31:49.165Z,5.40
2019-03-15T22:34:19.578Z,5.20
2019-03-15T22:36:50.006Z,5.20
2019-03-15T22:39:20.517Z,5.20
2019-03-15T22:41:51.069Z,5.00
2019-03-15T22:44:21.476Z,5.10
2019-03-15T22:46:52.035Z,5.30
2019-03-15T22:49:22.447Z,5.10
2019-03-15T22:51:52.853Z,5.20
2019-03-15T22:54:23.300Z,5.00
2019-03-15T22:56:54.045Z,5.20
2019-03-15T22:59:24.446Z,5.00
2019-03-15T23:01:54.889Z,5.00
2019-03-15T23:04:25.287Z,5.00
2019-03-15T23:06:56.003Z,5.00
2019-03-15T23:09:26.448Z,5.00
2019-03-15T23:11:56.895Z,5.10
2019-03-15T23:14:27.339Z,5.10
2019-03-15T23:16:57.767Z,5.10
2019-03-15T23:19:28.175Z,5.20
2019-03-15T23:21:58.608Z,5.10
2019-03-15T23:24:29.362Z,5.10
2019-03-15T23:26:59.791Z,5.10
2019-03-15T23:29:30.187Z,5.20
2019-03-15T23:32:00.618Z,5.10
2019-03-15T23:34:31.039Z,5.20
2019-03-15T23:37:01.636Z,5.10
2019-03-15T23:39:32.413Z,5.20
2019-03-15T23:42:02.836Z,5.20
2019-03-15T23:44:33.279Z,5.00
2019-03-15T23:47:03.676Z,5.00
2019-03-15T23:49:34.139Z,5.10
2019-03-15T23:52:04.652Z,4.80
2019-03-15T23:54:35.157Z,5.00
2019-03-15T23:57:05.574Z,5.00
2019-03-15T23:59:36.129Z,5.10
